sensor_id;sensor_type;location;lat;lon;timestamp;pressure;altitude;pressure_sealevel;temperature;humidity
62122;BME280;48108;47.532;19.084;2023-08-31T03:47:45;99748.78;;;15.15;100.00
62122;BME280;48108;47.532;19.084;2023-08-31T03:51:01;99756.53;;;15.11;100.00
62122;BME280;48108;47.532;19.084;2023-08-31T03:54:05;99754.63;;;15.12;100.00
62122;BME280;48108;47.532;19.084;2023-08-31T03:57:08;99749.22;;;15.12;100.00
62122;BME280;48108;47.532;19.084;2023-08-31T04:00:11;99748.38;;;15.11;100.00
62122;BME280;48108;47.532;19.084;2023-08-31T04:03:15;99751.56;;;15.08;100.00
62122;BME280;48108;47.532;19.084;2023-08-31T04:06:19;99760.31;;;15.10;100.00
62122;BME280;48108;47.532;19.084;2023-08-31T04:09:21;99746.47;;;15.18;100.00
62122;BME280;48108;47.532;19.084;2023-08-31T04:12:24;99755.63;;;15.17;100.00
62122;BME280;48108;47.532;19.084;2023-08-31T04:15:27;99760.03;;;15.18;100.00
62122;BME280;48108;47.532;19.084;2023-08-31T04:18:30;99761.50;;;15.14;100.00
62122;BME280;48108;47.532;19.084;2023-08-31T04:21:33;99769.34;;;15.23;100.00
62122;BME280;48108;47.532;19.084;2023-08-31T04:24:36;99765.22;;;15.20;100.00
62122;BME280;48108;47.532;19.084;2023-08-31T04:27:39;99769.59;;;15.21;100.00
62122;BME280;48108;47.532;19.084;2023-08-31T04:30:42;99770.78;;;15.25;100.00
62122;BME280;48108;47.532;19.084;2023-08-31T04:33:47;99769.97;;;15.25;100.00
62122;BME280;48108;47.532;19.084;2023-08-31T04:36:51;99769.44;;;15.34;100.00
62122;BME280;48108;47.532;19.084;2023-08-31T04:39:53;99772.53;;;15.38;100.00
62122;BME280;48108;47.532;19.084;2023-08-31T04:42:56;99783.72;;;15.48;100.00
62122;BME280;48108;47.532;19.084;2023-08-31T04:45:59;99793.97;;;15.64;100.00
62122;BME280;48108;47.532;19.084;2023-08-31T04:49:02;99792.50;;;15.69;100.00
62122;BME280;48108;47.532;19.084;2023-08-31T04:52:06;99789.72;;;15.75;100.00
62122;BME280;48108;47.532;19.084;2023-08-31T04:55:09;99801.00;;;15.91;100.00
62122;BME280;48108;47.532;19.084;2023-08-31T04:58:13;99800.09;;;15.97;100.00
62122;BME280;48108;47.532;19.084;2023-08-31T05:01:16;99805.00;;;16.06;100.00
62122;BME280;48108;47.532;19.084;2023-08-31T05:04:19;99813.06;;;16.13;100.00
62122;BME280;48108;47.532;19.084;2023-08-31T05:07:22;99816.59;;;16.14;100.00
62122;BME280;48108;47.532;19.084;2023-08-31T05:10:24;99821.88;;;16.27;100.00
62122;BME280;48108;47.532;19.084;2023-08-31T05:13:28;99822.25;;;16.30;100.00
62122;BME280;48108;47.532;19.084;2023-08-31T05:16:31;99828.06;;;16.34;100.00
62122;BME280;48108;47.532;19.084;2023-08-31T05:19:34;99833.72;;;16.32;100.00
62122;BME280;48108;47.532;19.084;2023-08-31T05:22:37;99838.16;;;16.45;100.00
62122;BME280;48108;47.532;19.084;2023-08-31T05:25:43;99849.44;;;16.61;100.00
62122;BME280;48108;47.532;19.084;2023-08-31T05:28:46;99839.19;;;16.74;100.00
62122;BME280;48108;47.532;19.084;2023-08-31T05:31:51;99846.34;;;16.87;100.00
62122;BME280;48108;47.532;19.084;2023-08-31T05:34:54;99851.31;;;16.90;100.00
62122;BME280;48108;47.532;19.084;2023-08-31T05:37:58;99851.75;;;17.06;100.00
62122;BME280;48108;47.532;19.084;2023-08-31T05:41:08;99852.91;;;17.10;100.00
62122;BME280;48108;47.532;19.084;2023-08-31T05:44:12;99856.59;;;17.15;100.00
62122;BME280;48108;47.532;19.084;2023-08-31T05:47:14;99864.06;;;17.20;100.00
62122;BME280;48108;47.532;19.084;2023-08-31T05:50:17;99868.16;;;17.11;100.00
62122;BME280;48108;47.532;19.084;2023-08-31T05:53:20;99872.75;;;16.98;100.00
62122;BME280;48108;47.532;19.084;2023-08-31T05:56:24;99867.62;;;16.90;100.00
62122;BME280;48108;47.532;19.084;2023-08-31T05:59:27;99874.94;;;16.78;100.00
62122;BME280;48108;47.532;19.084;2023-08-31T06:02:30;99881.44;;;16.77;100.00
62122;BME280;48108;47.532;19.084;2023-08-31T06:05:33;99882.06;;;16.79;100.00
62122;BME280;48108;47.532;19.084;2023-08-31T06:08:36;99886.63;;;16.78;100.00
62122;BME280;48108;47.532;19.084;2023-08-31T06:11:39;99891.06;;;16.91;100.00
62122;BME280;48108;47.532;19.084;2023-08-31T06:14:43;99889.81;;;17.06;100.00
62122;BME280;48108;47.532;19.084;2023-08-31T06:17:45;99897.66;;;17.37;100.00
62122;BME280;48108;47.532;19.084;2023-08-31T06:20:49;99889.81;;;17.95;100.00
62122;BME280;48108;47.532;19.084;2023-08-31T06:23:52;99904.91;;;18.38;100.00
62122;BME280;48108;47.532;19.084;2023-08-31T06:26:55;99895.28;;;18.87;100.00
62122;BME280;48108;47.532;19.084;2023-08-31T06:29:59;99900.22;;;19.36;100.00
62122;BME280;48108;47.532;19.084;2023-08-31T06:33:02;99910.09;;;19.70;100.00
62122;BME280;48108;47.532;19.084;2023-08-31T06:36:05;99909.66;;;19.96;97.50
62122;BME280;48108;47.532;19.084;2023-08-31T06:39:08;99910.69;;;20.11;97.54
62122;BME280;48108;47.532;19.084;2023-08-31T06:42:11;99912.41;;;20.17;95.71
62122;BME280;48108;47.532;19.084;2023-08-31T06:45:13;99919.81;;;20.00;96.08
62122;BME280;48108;47.532;19.084;2023-08-31T06:48:16;99920.00;;;19.93;97.69
62122;BME280;48108;47.532;19.084;2023-08-31T06:51:19;99921.94;;;19.76;97.99
62122;BME280;48108;47.532;19.084;2023-08-31T06:54:26;99925.22;;;19.61;98.15
62122;BME280;48108;47.532;19.084;2023-08-31T06:57:29;99908.69;;;19.51;99.55
62122;BME280;48108;47.532;19.084;2023-08-31T07:00:32;99915.59;;;19.42;100.00
62122;BME280;48108;47.532;19.084;2023-08-31T07:03:35;99920.75;;;19.38;100.00
62122;BME280;48108;47.532;19.084;2023-08-31T07:06:38;99918.19;;;19.48;100.00
62122;BME280;48108;47.532;19.084;2023-08-31T07:09:45;99930.84;;;19.38;100.00
62122;BME280;48108;47.532;19.084;2023-08-31T07:12:49;99928.75;;;19.45;100.00
62122;BME280;48108;47.532;19.084;2023-08-31T07:15:51;99937.63;;;19.52;99.90
62122;BME280;48108;47.532;19.084;2023-08-31T07:18:54;99940.84;;;19.49;99.93
62122;BME280;48108;47.532;19.084;2023-08-31T07:21:57;99938.78;;;19.39;100.00
62122;BME280;48108;47.532;19.084;2023-08-31T07:25:02;99942.09;;;19.41;100.00
62122;BME280;48108;47.532;19.084;2023-08-31T07:28:06;99946.94;;;19.68;99.48
62122;BME280;48108;47.532;19.084;2023-08-31T07:31:09;99953.06;;;19.92;98.24
62122;BME280;48108;47.532;19.084;2023-08-31T07:34:12;99952.63;;;20.39;96.06
62122;BME280;48108;47.532;19.084;2023-08-31T07:37:15;99960.88;;;20.61;93.34
62122;BME280;48108;47.532;19.084;2023-08-31T07:40:18;99961.84;;;20.72;92.97
62122;BME280;48108;47.532;19.084;2023-08-31T07:43:21;99959.22;;;20.60;91.70
62122;BME280;48108;47.532;19.084;2023-08-31T07:46:24;99958.09;;;20.39;90.89
62122;BME280;48108;47.532;19.084;2023-08-31T07:49:27;99963.06;;;20.42;92.30
62122;BME280;48108;47.532;19.084;2023-08-31T07:52:30;99956.50;;;20.60;90.04
62122;BME280;48108;47.532;19.084;2023-08-31T07:55:33;99956.59;;;20.92;87.91
62122;BME280;48108;47.532;19.084;2023-08-31T07:58:37;99956.09;;;20.95;87.37
62122;BME280;48108;47.532;19.084;2023-08-31T08:01:41;99957.56;;;21.30;87.28
62122;BME280;48108;47.532;19.084;2023-08-31T08:04:47;99953.19;;;21.34;85.74
62122;BME280;48108;47.532;19.084;2023-08-31T08:07:50;99968.97;;;21.22;86.43
62122;BME280;48108;47.532;19.084;2023-08-31T08:10:54;99957.88;;;21.12;85.38
62122;BME280;48108;47.532;19.084;2023-08-31T08:13:57;99968.44;;;21.25;85.62
62122;BME280;48108;47.532;19.084;2023-08-31T08:17:00;99971.25;;;21.35;84.18
62122;BME280;48108;47.532;19.084;2023-08-31T08:20:05;99969.78;;;21.49;83.06
62122;BME280;48108;47.532;19.084;2023-08-31T08:23:09;99975.91;;;21.57;85.66
62122;BME280;48108;47.532;19.084;2023-08-31T08:26:12;99979.81;;;21.66;85.07
62122;BME280;48108;47.532;19.084;2023-08-31T08:29:18;99980.06;;;21.64;84.68
62122;BME280;48108;47.532;19.084;2023-08-31T08:32:20;99986.22;;;21.82;83.77
62122;BME280;48108;47.532;19.084;2023-08-31T08:35:24;99985.34;;;21.71;83.91
62122;BME280;48108;47.532;19.084;2023-08-31T08:38:27;99980.22;;;21.85;82.48
62122;BME280;48108;47.532;19.084;2023-08-31T08:41:32;99987.13;;;22.25;80.55
62122;BME280;48108;47.532;19.084;2023-08-31T08:44:36;99983.19;;;22.58;78.95
62122;BME280;48108;47.532;19.084;2023-08-31T08:47:40;99987.19;;;22.93;78.13
62122;BME280;48108;47.532;19.084;2023-08-31T08:50:44;99993.94;;;23.38;75.74
62122;BME280;48108;47.532;19.084;2023-08-31T08:53:48;99989.62;;;23.88;73.72
62122;BME280;48108;47.532;19.084;2023-08-31T08:56:53;99994.53;;;24.01;72.09
62122;BME280;48108;47.532;19.084;2023-08-31T08:59:58;99997.53;;;24.35;71.63
62122;BME280;48108;47.532;19.084;2023-08-31T09:03:01;99996.97;;;24.38;72.36
62122;BME280;48108;47.532;19.084;2023-08-31T09:06:06;100009.47;;;24.96;67.78
62122;BME280;48108;47.532;19.084;2023-08-31T09:09:10;100011.69;;;24.94;67.19
62122;BME280;48108;47.532;19.084;2023-08-31T09:12:13;100016.97;;;24.80;67.71
62122;BME280;48108;47.532;19.084;2023-08-31T09:15:16;100014.69;;;24.92;66.17
62122;BME280;48108;47.532;19.084;2023-08-31T09:18:26;100020.72;;;25.04;65.99
62122;BME280;48108;47.532;19.084;2023-08-31T09:21:38;100022.69;;;24.99;65.28
62122;BME280;48108;47.532;19.084;2023-08-31T09:24:43;100028.50;;;24.87;65.95
62122;BME280;48108;47.532;19.084;2023-08-31T09:27:48;100029.56;;;24.96;66.15
62122;BME280;48108;47.532;19.084;2023-08-31T09:30:51;100034.84;;;24.82;65.80
62122;BME280;48108;47.532;19.084;2023-08-31T09:33:55;100034.13;;;24.46;65.83
62122;BME280;48108;47.532;19.084;2023-08-31T09:37:04;100034.81;;;24.93;64.88
62122;BME280;48108;47.532;19.084;2023-08-31T09:40:08;100036.03;;;24.66;64.24
62122;BME280;48108;47.532;19.084;2023-08-31T09:43:11;100040.13;;;24.69;63.96
62122;BME280;48108;47.532;19.084;2023-08-31T09:46:15;100041.53;;;24.66;64.81
62122;BME280;48108;47.532;19.084;2023-08-31T09:49:21;100032.41;;;24.71;63.50
62122;BME280;48108;47.532;19.084;2023-08-31T09:52:25;100020.34;;;24.61;63.95
62122;BME280;48108;47.532;19.084;2023-08-31T09:55:29;100028.13;;;25.14;62.43
62122;BME280;48108;47.532;19.084;2023-08-31T09:58:33;100034.94;;;25.27;63.39
62122;BME280;48108;47.532;19.084;2023-08-31T10:01:36;100033.59;;;25.69;60.42
62122;BME280;48108;47.532;19.084;2023-08-31T10:04:39;100040.91;;;25.44;59.37
62122;BME280;48108;47.532;19.084;2023-08-31T10:07:43;100048.78;;;25.17;61.31
62122;BME280;48108;47.532;19.084;2023-08-31T10:10:46;100042.75;;;25.04;60.20
62122;BME280;48108;47.532;19.084;2023-08-31T10:13:50;100051.97;;;24.69;60.46
62122;BME280;48108;47.532;19.084;2023-08-31T10:16:53;100054.44;;;24.71;61.11
62122;BME280;48108;47.532;19.084;2023-08-31T10:19:58;100046.72;;;24.67;62.00
62122;BME280;48108;47.532;19.084;2023-08-31T10:23:05;100057.13;;;24.86;61.11
62122;BME280;48108;47.532;19.084;2023-08-31T10:26:08;100063.31;;;25.32;59.93
62122;BME280;48108;47.532;19.084;2023-08-31T10:29:26;100063.75;;;25.94;57.71
62122;BME280;48108;47.532;19.084;2023-08-31T10:32:32;100070.87;;;25.56;57.99
62122;BME280;48108;47.532;19.084;2023-08-31T10:35:55;100076.25;;;25.37;58.70
62122;BME280;48108;47.532;19.084;2023-08-31T10:39:01;100070.81;;;25.06;59.76
62122;BME280;48108;47.532;19.084;2023-08-31T10:42:07;100068.34;;;25.15;60.79
62122;BME280;48108;47.532;19.084;2023-08-31T10:45:10;100071.66;;;25.67;60.39
62122;BME280;48108;47.532;19.084;2023-08-31T10:48:13;100067.44;;;26.19;59.92
62122;BME280;48108;47.532;19.084;2023-08-31T10:51:16;100078.13;;;25.91;58.44
62122;BME280;48108;47.532;19.084;2023-08-31T10:54:21;100074.13;;;26.42;55.93
62122;BME280;48108;47.532;19.084;2023-08-31T10:57:30;100078.16;;;26.55;56.33
62122;BME280;48108;47.532;19.084;2023-08-31T11:01:06;100083.41;;;26.56;56.71
62122;BME280;48108;47.532;19.084;2023-08-31T11:04:09;100083.72;;;25.76;57.86
62122;BME280;48108;47.532;19.084;2023-08-31T11:07:17;100087.59;;;25.75;58.21
62122;BME280;48108;47.532;19.084;2023-08-31T11:10:23;100086.84;;;25.64;58.56
62122;BME280;48108;47.532;19.084;2023-08-31T11:13:27;100100.81;;;25.83;58.02
62122;BME280;48108;47.532;19.084;2023-08-31T11:16:30;100093.47;;;26.08;55.70
62122;BME280;48108;47.532;19.084;2023-08-31T11:19:35;100097.50;;;25.81;55.94
62122;BME280;48108;47.532;19.084;2023-08-31T11:22:41;100098.50;;;25.51;57.09
62122;BME280;48108;47.532;19.084;2023-08-31T11:25:44;100103.47;;;25.49;56.97
62122;BME280;48108;47.532;19.084;2023-08-31T11:28:49;100098.53;;;25.95;56.04
62122;BME280;48108;47.532;19.084;2023-08-31T11:31:52;100095.41;;;26.41;54.42
62122;BME280;48108;47.532;19.084;2023-08-31T11:34:55;100097.31;;;26.41;54.00
62122;BME280;48108;47.532;19.084;2023-08-31T11:37:58;100105.66;;;26.36;53.56
62122;BME280;48108;47.532;19.084;2023-08-31T11:41:00;100105.37;;;27.63;51.30
62122;BME280;48108;47.532;19.084;2023-08-31T11:44:04;100101.69;;;29.17;49.47
62122;BME280;48108;47.532;19.084;2023-08-31T11:47:08;100083.34;;;29.57;44.36
62122;BME280;48108;47.532;19.084;2023-08-31T11:50:11;100089.22;;;31.00;41.74
62122;BME280;48108;47.532;19.084;2023-08-31T11:53:17;100088.88;;;31.50;40.79
62122;BME280;48108;47.532;19.084;2023-08-31T11:56:20;100089.53;;;31.47;39.93
62122;BME280;48108;47.532;19.084;2023-08-31T11:59:23;100100.38;;;31.66;41.25
62122;BME280;48108;47.532;19.084;2023-08-31T12:02:26;100092.00;;;31.00;40.53
62122;BME280;48108;47.532;19.084;2023-08-31T12:05:29;100095.94;;;30.99;40.61
62122;BME280;48108;47.532;19.084;2023-08-31T12:08:47;100093.16;;;32.25;37.97
62122;BME280;48108;47.532;19.084;2023-08-31T12:11:51;100086.62;;;32.86;36.19
62122;BME280;48108;47.532;19.084;2023-08-31T12:14:54;100088.72;;;33.99;32.76
62122;BME280;48108;47.532;19.084;2023-08-31T12:17:57;100085.66;;;35.28;30.13
62122;BME280;48108;47.532;19.084;2023-08-31T12:21:00;100077.69;;;35.30;29.17
62122;BME280;48108;47.532;19.084;2023-08-31T12:24:04;100090.94;;;34.72;28.95
62122;BME280;48108;47.532;19.084;2023-08-31T12:27:08;100075.75;;;36.12;27.50
62122;BME280;48108;47.532;19.084;2023-08-31T12:30:12;100082.03;;;35.80;26.36
62122;BME280;48108;47.532;19.084;2023-08-31T12:33:15;100075.41;;;36.01;27.51
62122;BME280;48108;47.532;19.084;2023-08-31T12:36:19;100073.09;;;36.31;26.41
62122;BME280;48108;47.532;19.084;2023-08-31T12:39:22;100079.88;;;36.02;26.01
62122;BME280;48108;47.532;19.084;2023-08-31T12:42:25;100079.66;;;37.30;25.07
62122;BME280;48108;47.532;19.084;2023-08-31T12:45:28;100091.63;;;37.62;23.43
62122;BME280;48108;47.532;19.084;2023-08-31T12:48:32;100091.78;;;37.89;23.74
62122;BME280;48108;47.532;19.084;2023-08-31T12:51:36;100092.13;;;38.88;22.27
62122;BME280;48108;47.532;19.084;2023-08-31T12:54:39;100085.88;;;37.23;24.45
62122;BME280;48108;47.532;19.084;2023-08-31T12:57:42;100090.97;;;38.27;23.40
62122;BME280;48108;47.532;19.084;2023-08-31T13:00:46;100081.47;;;39.54;22.23
62122;BME280;48108;47.532;19.084;2023-08-31T13:03:50;100083.19;;;37.82;23.92
62122;BME280;48108;47.532;19.084;2023-08-31T13:06:55;100089.03;;;38.31;23.13
62122;BME280;48108;47.532;19.084;2023-08-31T13:10:00;100082.31;;;37.07;24.15
62122;BME280;48108;47.532;19.084;2023-08-31T13:13:03;100082.44;;;34.23;27.44
62122;BME280;48108;47.532;19.084;2023-08-31T13:16:09;100084.97;;;32.12;30.69
62122;BME280;48108;47.532;19.084;2023-08-31T13:19:12;100077.44;;;31.60;30.83
62122;BME280;48108;47.532;19.084;2023-08-31T13:22:15;100088.75;;;30.66;32.04
62122;BME280;48108;47.532;19.084;2023-08-31T13:25:19;100085.06;;;29.67;34.22
62122;BME280;48108;47.532;19.084;2023-08-31T13:28:21;100085.13;;;28.84;35.46
62122;BME280;48108;47.532;19.084;2023-08-31T13:31:24;100081.50;;;29.39;35.16
62122;BME280;48108;47.532;19.084;2023-08-31T13:34:27;100082.09;;;28.53;36.81
62122;BME280;48108;47.532;19.084;2023-08-31T13:37:30;100079.62;;;29.48;34.70
62122;BME280;48108;47.532;19.084;2023-08-31T13:40:34;100072.41;;;33.08;30.00
62122;BME280;48108;47.532;19.084;2023-08-31T13:43:38;100070.38;;;36.19;25.47
62122;BME280;48108;47.532;19.084;2023-08-31T13:46:41;100065.50;;;36.47;24.95
62122;BME280;48108;47.532;19.084;2023-08-31T13:49:44;100071.97;;;36.80;23.95
62122;BME280;48108;47.532;19.084;2023-08-31T13:52:47;100059.47;;;35.49;25.00
62122;BME280;48108;47.532;19.084;2023-08-31T13:55:50;100081.91;;;32.78;28.77
62122;BME280;48108;47.532;19.084;2023-08-31T13:58:52;100078.69;;;30.79;31.33
62122;BME280;48108;47.532;19.084;2023-08-31T14:01:55;100084.91;;;29.36;33.76
62122;BME280;48108;47.532;19.084;2023-08-31T14:04:58;100085.41;;;28.83;35.43
62122;BME280;48108;47.532;19.084;2023-08-31T14:08:01;100087.09;;;29.11;34.31
62122;BME280;48108;47.532;19.084;2023-08-31T14:11:06;100096.31;;;29.07;34.54
62122;BME280;48108;47.532;19.084;2023-08-31T14:14:09;100091.06;;;29.33;34.37
62122;BME280;48108;47.532;19.084;2023-08-31T14:17:13;100093.84;;;29.33;34.47
62122;BME280;48108;47.532;19.084;2023-08-31T14:20:16;100092.25;;;28.44;35.75
62122;BME280;48108;47.532;19.084;2023-08-31T14:23:19;100095.47;;;28.13;36.76
62122;BME280;48108;47.532;19.084;2023-08-31T14:26:23;100092.75;;;27.94;37.62
62122;BME280;48108;47.532;19.084;2023-08-31T14:29:26;100097.06;;;27.63;38.11
62122;BME280;48108;47.532;19.084;2023-08-31T14:32:29;100100.19;;;27.13;38.67
62122;BME280;48108;47.532;19.084;2023-08-31T14:35:36;100103.53;;;26.86;39.55
62122;BME280;48108;47.532;19.084;2023-08-31T14:38:39;100108.06;;;27.01;40.55
62122;BME280;48108;47.532;19.084;2023-08-31T14:41:42;100110.09;;;26.66;40.99
62122;BME280;48108;47.532;19.084;2023-08-31T14:44:44;100107.97;;;26.58;41.38
62122;BME280;48108;47.532;19.084;2023-08-31T14:47:47;100119.47;;;25.96;42.44
62122;BME280;48108;47.532;19.084;2023-08-31T14:50:50;100112.56;;;25.99;41.53
62122;BME280;48108;47.532;19.084;2023-08-31T14:53:53;100127.03;;;25.75;41.68
62122;BME280;48108;47.532;19.084;2023-08-31T14:56:56;100123.44;;;25.75;41.98
62122;BME280;48108;47.532;19.084;2023-08-31T14:59:59;100120.50;;;25.56;42.10
62122;BME280;48108;47.532;19.084;2023-08-31T15:03:05;100118.63;;;25.46;42.47
62122;BME280;48108;47.532;19.084;2023-08-31T15:06:08;100119.75;;;25.45;43.20
62122;BME280;48108;47.532;19.084;2023-08-31T15:09:11;100124.28;;;25.10;44.41
62122;BME280;48108;47.532;19.084;2023-08-31T15:12:14;100122.09;;;25.02;46.14
62122;BME280;48108;47.532;19.084;2023-08-31T15:15:16;100125.72;;;24.93;45.35
62122;BME280;48108;47.532;19.084;2023-08-31T15:18:20;100124.41;;;24.54;44.99
62122;BME280;48108;47.532;19.084;2023-08-31T15:21:23;100127.72;;;24.51;44.91
62122;BME280;48108;47.532;19.084;2023-08-31T15:24:26;100128.50;;;24.31;45.37
62122;BME280;48108;47.532;19.084;2023-08-31T15:27:29;100130.97;;;24.28;46.40
62122;BME280;48108;47.532;19.084;2023-08-31T15:30:32;100131.22;;;24.16;46.75
62122;BME280;48108;47.532;19.084;2023-08-31T15:33:35;100141.44;;;24.10;47.10
62122;BME280;48108;47.532;19.084;2023-08-31T15:36:40;100140.84;;;24.03;46.81
62122;BME280;48108;47.532;19.084;2023-08-31T15:39:43;100151.56;;;23.99;48.38
62122;BME280;48108;47.532;19.084;2023-08-31T15:42:46;100145.53;;;24.03;47.33
62122;BME280;48108;47.532;19.084;2023-08-31T15:45:49;100146.06;;;23.94;47.21
62122;BME280;48108;47.532;19.084;2023-08-31T15:48:52;100148.53;;;24.01;46.99
62122;BME280;48108;47.532;19.084;2023-08-31T15:51:55;100153.44;;;23.84;48.25
62122;BME280;48108;47.532;19.084;2023-08-31T15:55:00;100147.12;;;23.73;48.07
